Terminal Aerodrome Forecast
Issued by NWS

Home | Current Version | Previous Version | Text Only | Print | Product List | Glossary On
Versions: 1 2 3 4 5 6 7 8 9 10 11 12 13 14 15 16 17 18 19 20 21 22 23 24 25 26 27 28 29 30 31 32 33 34 35 36 37
000
FTPA31 PHFO 221731
TAFMDY
TAF
PMDY 221731Z 2218/2318 17016KT P6SM VCSH FEW025 SCT050 BKN110
     FM222100 18019KT 6SM -SHRA BR VCTS FEW015CB SCT025 BKN050
     FM230000 19016KT 4SM -SHRA BR VCTS SCT015CB BKN025 OVC050
     FM230400 23010G18KT 3SM -SHRA BR SCT015 BKN025 OVC050
     FM230800 32008G14KT P6SM VCSH SCT009 BKN020=

USA.gov is the U.S. government's official web portal to all federal, state and local government web resources and services.